createdAt,value
2023-03-26T00:01:38.199Z,96454.68
2023-03-26T00:04:12.270Z,96455.41
2023-03-26T00:06:49.223Z,96454.06
2023-03-26T00:09:21.432Z,96450.38
2023-03-26T00:11:56.130Z,96447.17
2023-03-26T00:14:30.750Z,96447.54
2023-03-26T00:17:04.805Z,96450.25
2023-03-26T00:19:39.497Z,96449.17
2023-03-26T00:22:14.013Z,96450.84
2023-03-26T00:24:50.213Z,96449.00
2023-03-26T00:27:25.797Z,96453.55
2023-03-26T00:30:00.519Z,96451.74
2023-03-26T00:32:34.830Z,96447.13
2023-03-26T00:35:09.261Z,96446.43
2023-03-26T00:37:46.546Z,96443.40
2023-03-26T00:40:20.531Z,96438.34
2023-03-26T00:42:54.376Z,96432.08
2023-03-26T00:45:28.902Z,96427.52
2023-03-26T00:48:03.812Z,96424.16
2023-03-26T00:50:37.264Z,96420.55
2023-03-26T00:53:12.791Z,96417.05
2023-03-26T00:55:47.315Z,96417.61
2023-03-26T00:58:22.696Z,96414.98
2023-03-26T01:00:58.617Z,96413.77
2023-03-26T01:03:35.616Z,96408.34
2023-03-26T01:06:11.633Z,96414.64
2023-03-26T01:08:47.198Z,96413.91
2023-03-26T01:11:22.849Z,96412.27
2023-03-26T01:13:59.211Z,96410.43
2023-03-26T01:16:37.572Z,96406.27
2023-03-26T01:19:14.562Z,96407.79
2023-03-26T01:21:47.794Z,96406.55
2023-03-26T01:24:22.606Z,96405.88
2023-03-26T01:27:09.978Z,96400.02
2023-03-26T01:29:48.602Z,96398.02
2023-03-26T01:32:41.350Z,96397.60
2023-03-26T01:35:26.901Z,96401.46
2023-03-26T01:38:11.185Z,96404.74
2023-03-26T01:40:50.937Z,96401.54
2023-03-26T01:43:34.389Z,96404.85
2023-03-26T01:46:10.053Z,96401.55
2023-03-26T01:48:44.376Z,96395.78
2023-03-26T01:51:29.865Z,96395.95
2023-03-26T01:54:04.937Z,96389.61
2023-03-26T01:56:43.674Z,96389.37
2023-03-26T01:59:29.491Z,96390.69
2023-03-26T02:02:09.524Z,96389.15
2023-03-26T02:04:47.457Z,96391.60
2023-03-26T02:07:25.826Z,96390.73
2023-03-26T02:10:02.903Z,96396.27
2023-03-26T02:12:36.804Z,96406.11
2023-03-26T02:15:12.794Z,96398.45
2023-03-26T02:17:47.354Z,96395.54
2023-03-26T02:20:21.590Z,96396.42
2023-03-26T02:22:55.885Z,96398.13
2023-03-26T02:25:29.965Z,96398.52
2023-03-26T02:28:04.746Z,96401.48
2023-03-26T02:30:40.643Z,96405.02
2023-03-26T02:33:17.835Z,96405.20
2023-03-26T02:35:52.022Z,96393.19
2023-03-26T02:38:25.806Z,96395.42
2023-03-26T02:41:00.862Z,96389.25
2023-03-26T02:43:34.766Z,96392.61
2023-03-26T02:46:08.723Z,96396.13
2023-03-26T02:48:44.463Z,96391.11
2023-03-26T02:51:18.584Z,96386.55
2023-03-26T02:53:54.219Z,96383.33
2023-03-26T02:56:29.116Z,96386.11
2023-03-26T02:59:02.867Z,96378.91
2023-03-26T03:01:37.622Z,96375.65
2023-03-26T03:04:12.097Z,96373.60
2023-03-26T03:06:47.080Z,96375.67
2023-03-26T03:09:21.083Z,96380.34
2023-03-26T03:11:57.746Z,96386.31
2023-03-26T03:14:32.112Z,96385.28
2023-03-26T03:17:05.940Z,96385.56
2023-03-26T03:19:41.184Z,96388.54
2023-03-26T03:22:15.128Z,96387.00
2023-03-26T03:24:48.974Z,96387.56
2023-03-26T03:27:26.697Z,96385.20
2023-03-26T03:30:00.595Z,96382.95
2023-03-26T03:32:34.232Z,96380.39
2023-03-26T03:35:08.856Z,96377.13
2023-03-26T03:37:43.307Z,96369.76
2023-03-26T03:40:17.600Z,96369.71
2023-03-26T03:42:53.726Z,96367.45
2023-03-26T03:45:27.562Z,96369.36
2023-03-26T03:48:01.256Z,96373.37
2023-03-26T03:50:36.401Z,96379.82
2023-03-26T03:53:10.618Z,96378.98
2023-03-26T03:55:44.347Z,96376.28
2023-03-26T03:58:22.240Z,96377.13
2023-03-26T04:01:01.371Z,96380.05
2023-03-26T04:03:39.250Z,96380.39
2023-03-26T04:06:13.360Z,96376.42
2023-03-26T04:08:47.664Z,96368.60
2023-03-26T04:11:21.389Z,96363.14
2023-03-26T04:13:56.638Z,96368.99
2023-03-26T04:16:30.281Z,96367.56
2023-03-26T04:19:04.749Z,96355.96
2023-03-26T04:21:39.031Z,96346.58
2023-03-26T04:24:13.274Z,96343.20
2023-03-26T04:26:48.391Z,96349.97
2023-03-26T04:29:26.192Z,96349.65
2023-03-26T04:32:06.890Z,96349.90
2023-03-26T04:34:40.958Z,96351.30
2023-03-26T04:37:19.542Z,96343.69
2023-03-26T04:39:53.394Z,96339.10
2023-03-26T04:42:27.538Z,96343.48
2023-03-26T04:45:03.598Z,96346.30
2023-03-26T04:47:39.598Z,96343.88
2023-03-26T04:50:16.158Z,96339.15
2023-03-26T04:52:50.381Z,96331.04
2023-03-26T04:55:28.512Z,96339.66
2023-03-26T04:58:05.941Z,96347.30
2023-03-26T05:00:39.609Z,96341.30
2023-03-26T05:03:15.011Z,96339.14
2023-03-26T05:05:50.123Z,96340.26
2023-03-26T05:08:24.257Z,96341.24
2023-03-26T05:10:59.185Z,96335.84
2023-03-26T05:13:32.998Z,96339.09
2023-03-26T05:16:07.436Z,96337.48
2023-03-26T05:18:40.955Z,96339.41
2023-03-26T05:21:15.305Z,96333.85
2023-03-26T05:23:49.053Z,96331.81
2023-03-26T05:26:23.200Z,96329.84
2023-03-26T05:28:57.330Z,96330.71
2023-03-26T05:31:32.576Z,96331.63
2023-03-26T05:34:07.082Z,96336.82
2023-03-26T05:36:43.430Z,96342.42
2023-03-26T05:39:17.342Z,96346.30
2023-03-26T05:41:51.023Z,96336.82
2023-03-26T05:44:25.332Z,96325.20
2023-03-26T05:46:59.623Z,96317.90
2023-03-26T05:49:33.830Z,96317.17
2023-03-26T05:52:05.706Z,96310.48
2023-03-26T05:54:39.884Z,96307.09
2023-03-26T05:57:13.568Z,96301.77
2023-03-26T05:59:47.184Z,96302.51
2023-03-26T06:02:22.613Z,96299.46
2023-03-26T06:04:57.531Z,96294.46
2023-03-26T06:07:31.866Z,96294.84
2023-03-26T06:10:06.071Z,96291.14
2023-03-26T06:12:40.063Z,96289.50
2023-03-26T06:15:15.236Z,96291.20
2023-03-26T06:17:50.302Z,96288.65
2023-03-26T06:20:24.450Z,96280.23
2023-03-26T06:22:58.191Z,96275.42
2023-03-26T06:25:29.885Z,96276.65
2023-03-26T06:28:04.365Z,96280.52
2023-03-26T06:30:38.460Z,96272.32
2023-03-26T06:33:12.794Z,96269.65
2023-03-26T06:35:47.507Z,96264.52
2023-03-26T06:38:21.945Z,96255.77
2023-03-26T06:41:02.045Z,96251.26
2023-03-26T06:43:37.182Z,96252.40
2023-03-26T06:46:12.937Z,96250.65
2023-03-26T06:48:50.241Z,96248.70
2023-03-26T06:51:24.840Z,96240.52
2023-03-26T06:53:58.549Z,96233.67
2023-03-26T06:56:33.643Z,96226.89
2023-03-26T06:59:07.580Z,96216.23
2023-03-26T07:01:41.227Z,96216.66
2023-03-26T07:04:15.359Z,96210.14
2023-03-26T07:06:49.246Z,96203.23
2023-03-26T07:09:22.966Z,96202.14
2023-03-26T07:11:58.419Z,96194.96
2023-03-26T07:14:33.150Z,96192.30
2023-03-26T07:17:07.605Z,96191.59
2023-03-26T07:19:41.841Z,96191.50
2023-03-26T07:22:22.467Z,96184.31
2023-03-26T07:24:57.802Z,96175.39
2023-03-26T07:27:42.079Z,96164.48
2023-03-26T07:30:19.395Z,96165.46
2023-03-26T07:32:55.302Z,96162.79
2023-03-26T07:35:32.095Z,96164.14
2023-03-26T07:38:29.356Z,96164.48
2023-03-26T07:41:10.251Z,96162.61
2023-03-26T07:43:59.616Z,96161.97
2023-03-26T07:46:37.486Z,96156.64
2023-03-26T07:49:15.325Z,96158.48
2023-03-26T07:51:50.773Z,96159.80
2023-03-26T07:54:25.436Z,96161.71
2023-03-26T07:57:02.250Z,96155.52
2023-03-26T07:59:40.582Z,96148.26
2023-03-26T08:02:43.025Z,96146.70
2023-03-26T08:05:26.822Z,96140.27
2023-03-26T08:08:08.460Z,96134.38
2023-03-26T08:10:48.570Z,96129.11
2023-03-26T08:13:27.111Z,96127.85
2023-03-26T08:16:07.120Z,96121.81
2023-03-26T08:18:51.456Z,96120.59
2023-03-26T08:21:28.959Z,96109.59
2023-03-26T08:24:14.400Z,96104.78
2023-03-26T08:26:53.879Z,96106.70
2023-03-26T08:29:35.004Z,96106.42
2023-03-26T08:32:14.719Z,96100.56
2023-03-26T08:34:49.155Z,96098.48
2023-03-26T08:37:23.385Z,96095.41
2023-03-26T08:40:11.144Z,96091.58
2023-03-26T08:43:10.969Z,96094.04
2023-03-26T08:46:10.854Z,96085.68
2023-03-26T08:49:11.641Z,96075.48
2023-03-26T08:52:13.216Z,96069.27
2023-03-26T08:55:14.022Z,96061.57
2023-03-26T08:58:20.271Z,96061.86
2023-03-26T09:01:35.579Z,96058.23
2023-03-26T09:04:31.908Z,96047.94
2023-03-26T09:07:32.347Z,96045.91
2023-03-26T09:10:32.088Z,96041.52
2023-03-26T09:13:24.819Z,96036.23
2023-03-26T09:16:27.857Z,96026.58
2023-03-26T09:19:34.255Z,96019.63
2023-03-26T09:22:52.399Z,96014.30
2023-03-26T09:25:29.020Z,96012.55
2023-03-26T09:28:09.476Z,96005.56
2023-03-26T09:31:05.189Z,96003.93
2023-03-26T09:34:00.486Z,96012.61
2023-03-26T09:36:48.024Z,96004.05
2023-03-26T09:39:35.111Z,95997.16
2023-03-26T09:42:21.125Z,95995.05
2023-03-26T09:45:30.580Z,95990.08
2023-03-26T09:48:16.672Z,95980.63
2023-03-26T09:51:02.567Z,95973.77
2023-03-26T09:53:54.113Z,95967.95
2023-03-26T09:56:39.769Z,95960.02
2023-03-26T09:59:29.870Z,95946.27
2023-03-26T10:02:14.774Z,95945.95
2023-03-26T10:05:07.369Z,95938.69
2023-03-26T10:07:58.573Z,95931.66
2023-03-26T10:10:36.819Z,95925.77
2023-03-26T10:13:18.846Z,95922.70
2023-03-26T10:16:05.782Z,95914.05
2023-03-26T10:18:51.047Z,95900.30
2023-03-26T10:21:32.392Z,95893.15
2023-03-26T10:24:34.190Z,95891.29
2023-03-26T10:27:33.648Z,95892.83
2023-03-26T10:30:27.409Z,95893.20
2023-03-26T10:33:10.123Z,95884.73
2023-03-26T10:35:53.310Z,95877.60
2023-03-26T10:38:37.918Z,95876.10
2023-03-26T10:41:19.377Z,95873.72
2023-03-26T10:44:15.446Z,95874.11
2023-03-26T10:47:19.622Z,95874.55
2023-03-26T10:50:01.820Z,95866.61
2023-03-26T10:52:40.563Z,95860.55
2023-03-26T10:55:20.364Z,95855.75
2023-03-26T10:57:58.108Z,95850.08
2023-03-26T11:00:32.668Z,95843.67
2023-03-26T11:03:29.147Z,95838.33
2023-03-26T11:06:10.279Z,95832.05
2023-03-26T11:08:48.614Z,95823.10
2023-03-26T11:11:30.788Z,95812.95
2023-03-26T11:14:10.855Z,95806.27
2023-03-26T11:16:54.479Z,95799.39
2023-03-26T11:19:33.722Z,95796.75
2023-03-26T11:22:16.884Z,95798.80
2023-03-26T11:25:04.492Z,95790.89
2023-03-26T11:27:50.565Z,95788.48
2023-03-26T11:30:35.827Z,95789.93
2023-03-26T11:33:12.282Z,95785.48
2023-03-26T11:35:45.267Z,95786.56
2023-03-26T11:38:23.848Z,95780.64
2023-03-26T11:40:59.333Z,95772.46
2023-03-26T11:43:35.567Z,95768.45
2023-03-26T11:46:12.639Z,95766.92
2023-03-26T11:48:50.368Z,95765.88
2023-03-26T11:51:27.972Z,95764.23
2023-03-26T11:54:03.715Z,95764.56
2023-03-26T11:56:40.351Z,95757.08
2023-03-26T11:59:48.815Z,95748.86
2023-03-26T12:02:30.276Z,95741.23
2023-03-26T12:05:19.033Z,95739.98
2023-03-26T12:07:58.095Z,95741.20
2023-03-26T12:10:38.650Z,95740.48
2023-03-26T12:13:30.874Z,95741.05
2023-03-26T12:16:08.837Z,95746.71
2023-03-26T12:18:44.434Z,95740.51
2023-03-26T12:21:20.172Z,95737.32
2023-03-26T12:23:59.470Z,95736.40
2023-03-26T12:26:51.708Z,95731.08
2023-03-26T12:29:25.753Z,95728.36
2023-03-26T12:32:06.477Z,95727.09
2023-03-26T12:34:42.248Z,95725.38
2023-03-26T12:37:37.885Z,95724.81
2023-03-26T12:40:32.203Z,95724.77
2023-03-26T12:44:55.268Z,95720.95
2023-03-26T12:47:56.986Z,95722.46
2023-03-26T12:49:24.350Z,95723.09
2023-03-26T12:52:00.850Z,95719.61
2023-03-26T12:54:43.372Z,95716.98
2023-03-26T12:57:26.978Z,95715.71
2023-03-26T13:00:30.708Z,95717.48
2023-03-26T13:03:17.557Z,95712.90
2023-03-26T13:06:02.680Z,95698.89
2023-03-26T13:09:16.187Z,95699.04
2023-03-26T13:12:00.592Z,95697.92
2023-03-26T13:14:53.594Z,95700.23
2023-03-26T13:17:31.691Z,95695.89
2023-03-26T13:20:12.990Z,95695.98
2023-03-26T13:22:53.635Z,95693.36
2023-03-26T13:25:36.994Z,95695.27
2023-03-26T13:28:22.058Z,95693.96
2023-03-26T13:31:04.430Z,95691.11
2023-03-26T13:33:45.024Z,95692.37
2023-03-26T13:36:24.463Z,95690.52
2023-03-26T13:39:09.168Z,95688.50
2023-03-26T13:41:57.053Z,95684.81
2023-03-26T13:44:37.605Z,95685.39
2023-03-26T13:47:16.524Z,95682.07
2023-03-26T13:49:53.368Z,95685.13
2023-03-26T13:52:29.188Z,95688.30
2023-03-26T13:55:09.260Z,95686.52
2023-03-26T13:57:46.966Z,95694.78
2023-03-26T14:00:27.122Z,95700.27
2023-03-26T14:03:06.104Z,95711.89
2023-03-26T14:05:44.494Z,95712.95
2023-03-26T14:08:22.327Z,95720.65
2023-03-26T14:11:01.663Z,95717.55
2023-03-26T14:13:38.001Z,95717.67
2023-03-26T14:16:17.308Z,95716.52
2023-03-26T14:18:56.688Z,95713.86
2023-03-26T14:21:55.001Z,95716.23
2023-03-26T14:24:59.529Z,95722.26
2023-03-26T14:27:48.632Z,95726.66
2023-03-26T14:30:42.154Z,95729.52
2023-03-26T14:33:34.525Z,95734.59
2023-03-26T14:36:20.990Z,95743.35
2023-03-26T14:39:26.353Z,95750.70
2023-03-26T14:42:05.281Z,95759.00
2023-03-26T14:44:56.854Z,95766.00
2023-03-26T14:47:31.356Z,95770.30
2023-03-26T14:50:27.218Z,95775.53
2023-03-26T14:53:04.885Z,95775.07
2023-03-26T14:56:16.967Z,95780.10
2023-03-26T14:59:19.861Z,95784.88
2023-03-26T15:02:27.056Z,95787.73
2023-03-26T15:05:33.279Z,95791.98
2023-03-26T15:08:36.501Z,95796.39
2023-03-26T15:11:22.287Z,95795.99
2023-03-26T15:14:16.582Z,95794.48
2023-03-26T15:17:26.455Z,95797.29
2023-03-26T15:20:32.485Z,95794.66
2023-03-26T15:23:30.330Z,95796.56
2023-03-26T15:26:37.681Z,95801.95
2023-03-26T15:29:38.313Z,95805.39
2023-03-26T15:32:30.829Z,95814.30
2023-03-26T15:35:24.848Z,95822.85
2023-03-26T15:38:32.815Z,95830.20
2023-03-26T15:41:23.506Z,95835.61
2023-03-26T15:44:50.964Z,95837.88
2023-03-26T15:48:02.850Z,95837.47
2023-03-26T15:50:47.012Z,95841.98
2023-03-26T15:53:28.226Z,95841.13
2023-03-26T15:56:19.639Z,95844.29
2023-03-26T15:59:01.660Z,95839.20
2023-03-26T16:01:47.943Z,95841.50
2023-03-26T16:04:30.429Z,95841.77
2023-03-26T16:07:15.589Z,95845.92
2023-03-26T16:10:12.635Z,95845.64
2023-03-26T16:12:58.238Z,95843.06
2023-03-26T16:15:34.167Z,95836.05
2023-03-26T16:18:31.468Z,95832.27
2023-03-26T16:21:37.828Z,95836.95
2023-03-26T16:24:32.399Z,95841.80
2023-03-26T16:27:35.504Z,95841.88
2023-03-26T16:30:34.021Z,95843.91
2023-03-26T16:33:16.026Z,95849.72
2023-03-26T16:36:19.122Z,95853.58
2023-03-26T16:39:04.685Z,95854.77
2023-03-26T16:41:56.916Z,95855.84
2023-03-26T16:44:48.413Z,95854.53
2023-03-26T16:47:36.109Z,95855.94
2023-03-26T16:50:19.498Z,95858.83
2023-03-26T16:53:01.884Z,95857.95
2023-03-26T16:55:45.771Z,95860.92
2023-03-26T16:58:38.441Z,95862.52
2023-03-26T17:01:18.715Z,95860.40
2023-03-26T17:03:57.787Z,95862.20
2023-03-26T17:06:57.015Z,95865.58
2023-03-26T17:09:38.206Z,95870.84
2023-03-26T17:12:21.635Z,95870.90
2023-03-26T17:15:06.395Z,95874.88
2023-03-26T17:17:59.684Z,95880.32
2023-03-26T17:20:40.569Z,95890.73
2023-03-26T17:23:34.462Z,95896.59
2023-03-26T17:26:13.855Z,95898.70
2023-03-26T17:28:56.954Z,95892.38
2023-03-26T17:31:39.605Z,95881.67
2023-03-26T17:34:51.232Z,95871.33
2023-03-26T17:37:36.782Z,95868.95
2023-03-26T17:40:52.102Z,95869.14
2023-03-26T17:43:46.887Z,95874.39
2023-03-26T17:46:38.254Z,95880.04
2023-03-26T17:49:24.395Z,95882.14
2023-03-26T17:52:02.647Z,95888.02
2023-03-26T17:54:40.106Z,95887.70
2023-03-26T17:57:19.864Z,95888.77
2023-03-26T18:00:00.483Z,95893.18
2023-03-26T18:02:41.948Z,95887.17
2023-03-26T18:05:20.317Z,95886.19
2023-03-26T18:08:30.933Z,95881.35
2023-03-26T18:11:51.961Z,95881.89
2023-03-26T18:14:49.518Z,95885.13
2023-03-26T18:17:23.557Z,95883.52
2023-03-26T18:20:06.548Z,95881.68
2023-03-26T18:22:40.367Z,95885.30
2023-03-26T18:25:27.779Z,95891.33
2023-03-26T18:28:06.839Z,95897.73
2023-03-26T18:30:49.517Z,95901.60
2023-03-26T18:33:26.353Z,95895.90
2023-03-26T18:35:58.400Z,95892.25
2023-03-26T18:38:38.533Z,95888.29
2023-03-26T18:41:31.969Z,95882.42
2023-03-26T18:44:13.857Z,95882.50
2023-03-26T18:46:48.501Z,95884.63
2023-03-26T18:49:22.888Z,95881.66
2023-03-26T18:51:57.691Z,95876.40
2023-03-26T18:54:36.093Z,95876.77
2023-03-26T18:57:18.982Z,95875.25
2023-03-26T18:59:53.607Z,95872.20
2023-03-26T19:02:29.801Z,95875.64
2023-03-26T19:05:05.963Z,95887.36
2023-03-26T19:07:41.987Z,95893.51
2023-03-26T19:10:25.788Z,95885.63
2023-03-26T19:13:00.796Z,95887.98
2023-03-26T19:15:36.716Z,95886.59
2023-03-26T19:18:17.108Z,95885.83
2023-03-26T19:20:56.502Z,95885.59
2023-03-26T19:23:35.104Z,95881.86
2023-03-26T19:26:12.081Z,95882.35
2023-03-26T19:28:51.566Z,95887.55
2023-03-26T19:31:28.541Z,95886.91
2023-03-26T19:34:09.750Z,95885.67
2023-03-26T19:36:59.877Z,95886.41
2023-03-26T19:39:43.204Z,95890.01
2023-03-26T19:42:24.242Z,95891.22
2023-03-26T19:44:58.775Z,95897.70
2023-03-26T19:47:49.917Z,95893.10
2023-03-26T19:50:28.836Z,95893.70
2023-03-26T19:53:19.817Z,95892.58
2023-03-26T19:56:07.956Z,95892.34
2023-03-26T19:58:47.102Z,95891.46
2023-03-26T20:01:25.587Z,95889.45
2023-03-26T20:04:02.428Z,95888.02
2023-03-26T20:06:43.764Z,95886.09
2023-03-26T20:09:19.801Z,95883.52
2023-03-26T20:11:54.678Z,95875.70
2023-03-26T20:14:28.387Z,95881.92
2023-03-26T20:17:02.242Z,95882.65
2023-03-26T20:19:39.507Z,95884.80
2023-03-26T20:22:22.766Z,95882.14
2023-03-26T20:24:58.750Z,95882.05
2023-03-26T20:27:32.621Z,95879.96
2023-03-26T20:33:12.790Z,95882.38
2023-03-26T20:35:48.839Z,95882.02
2023-03-26T20:38:39.222Z,95879.66
2023-03-26T20:41:32.493Z,95881.02
2023-03-26T20:44:50.428Z,95878.02
2023-03-26T20:58:07.049Z,95882.59
2023-03-26T21:00:45.082Z,95880.45
2023-03-26T21:03:21.147Z,95880.95
2023-03-26T21:05:55.206Z,95875.90
2023-03-26T21:08:39.463Z,95873.91
2023-03-26T21:11:26.614Z,95877.35
2023-03-26T21:14:05.747Z,95876.95
2023-03-26T21:16:41.351Z,95876.05
2023-03-26T21:19:17.393Z,95874.65
2023-03-26T21:22:08.293Z,95873.64
2023-03-26T21:24:53.200Z,95874.43
2023-03-26T21:27:34.162Z,95870.41
2023-03-26T21:30:15.156Z,95868.17
2023-03-26T21:32:50.960Z,95861.69
2023-03-26T21:35:28.509Z,95858.70
2023-03-26T21:38:04.723Z,95860.77
2023-03-26T21:40:46.960Z,95862.85
2023-03-26T21:43:28.583Z,95851.11
2023-03-26T21:46:06.755Z,95846.58
2023-03-26T21:48:42.225Z,95845.23
2023-03-26T21:51:19.758Z,95845.19
2023-03-26T21:53:55.461Z,95841.82
2023-03-26T21:56:42.270Z,95842.11
2023-03-26T21:59:21.402Z,95839.52
2023-03-26T22:01:58.900Z,95829.55
2023-03-26T22:04:38.043Z,95823.90
2023-03-26T22:07:16.320Z,95816.02
2023-03-26T22:09:51.899Z,95813.70
2023-03-26T22:12:26.726Z,95811.65
2023-03-26T22:15:04.919Z,95811.13
2023-03-26T22:17:39.396Z,95814.00
2023-03-26T22:20:17.148Z,95815.44
2023-03-26T22:22:53.780Z,95813.11
2023-03-26T22:25:28.001Z,95812.58
2023-03-26T22:28:02.676Z,95814.89
2023-03-26T22:30:36.596Z,95809.00
2023-03-26T22:33:12.436Z,95802.19
2023-03-26T22:35:47.688Z,95800.02
2023-03-26T22:38:21.345Z,95801.27
2023-03-26T22:41:00.294Z,95797.46
2023-03-26T22:43:34.363Z,95791.02
2023-03-26T22:46:09.450Z,95785.53
2023-03-26T22:48:46.301Z,95786.98
2023-03-26T22:51:18.291Z,95789.42
2023-03-26T22:53:52.695Z,95789.84
2023-03-26T22:56:26.363Z,95789.98
2023-03-26T22:59:00.647Z,95791.17
2023-03-26T23:01:35.393Z,95786.85
2023-03-26T23:04:09.562Z,95783.13
2023-03-26T23:06:43.440Z,95781.92
2023-03-26T23:09:17.265Z,95774.41
2023-03-26T23:11:52.794Z,95773.02
2023-03-26T23:14:29.832Z,95770.33
2023-03-26T23:17:04.305Z,95768.98
2023-03-26T23:19:39.545Z,95763.41
2023-03-26T23:22:15.129Z,95756.02
2023-03-26T23:24:48.764Z,95745.37
2023-03-26T23:27:23.431Z,95745.86
2023-03-26T23:29:58.399Z,95745.08
2023-03-26T23:32:33.517Z,95744.44
2023-03-26T23:35:08.800Z,95744.55
2023-03-26T23:37:42.958Z,95744.66
2023-03-26T23:40:19.446Z,95746.39
2023-03-26T23:42:54.684Z,95741.95
2023-03-26T23:45:28.292Z,95743.05
2023-03-26T23:48:04.587Z,95741.48
2023-03-26T23:50:40.417Z,95741.10
2023-03-26T23:53:14.900Z,95739.41
2023-03-26T23:55:54.681Z,95737.63
2023-03-26T23:58:30.473Z,95736.55
